Melbourne, Australia

3:25 PM AEDT on March 26, 2017 (GMT +1100)
Brunswick East | | Change Station

Elev 161 ft 37.77 °S, 144.98 °E | Updated 4 seconds ago

Clear
Clear
81.3 °F
Feels Like 81.3 °F
N
2.9
Wind Variable Wind from SW
Gusts 4.9 mph

Today
High -- | Low -- °F
--% Chance of Precip.
Yesterday
High -- | Low -- °F
Precip. -- in
Pressure 29.89 in
Visibility 6.2 miles
Clouds Few 3500 ft
Mostly Cloudy 24000 ft
Dew Point 36.5 °F
Humidity 20%
Rainfall 0.00 in
Snow Depth Not available.
7:28 AM 7:22 PM
Waning Crescent, 5% visible
METAR YMML 260400Z 17006KT 130V210 9999 FEW035 BKN240 25/18 Q1012 NOSIG
Pressure 29.89 in
Visibility 6.2 miles
Clouds Few 3500 ft
Mostly Cloudy 24000 ft
Dew Point 36.5 °F
Humidity 20%
Rainfall 0.00 in
Snow Depth Not available.
7:28 AM 7:22 PM
Waning Crescent, 5% visible
METAR YMML 260400Z 17006KT 130V210 9999 FEW035 BKN240 25/18 Q1012 NOSIG

Get Severe Weather Alerts

Thanks for signing up!

Be on the lookout for a verification email in your inbox.

You'll start receiving the daily forecast at 8 AM.

×

10-Day Weather Forecast

×

Almanac

Astronomy

Mar. 26, 2017 Rise Set
Actual Time
Civil Twilight
Nautical Twilight
Astronomical Twilight
Moon
Length of Visible Light
Length of Day
Tomorrow will be .
, % of the Moon is Illuminated

Today's Extremes

Country Highs Country Lows

Community

WunderPhotos

Upload Photos

1,962,540 photos uploaded!

WunderBlog® & News

Nearby

Air Quality

  Air Quality AQ Index Pollutant
Not available.

Snow Depth

Station Depth Elevation

Earthquake Activity

City Distance Mag. Time & Date
Minimum magnitude displayed is 2.5.

Earthquake Activity

City Distance Mag. Time & Date
Minimum magnitude displayed is 2.5.

Coastal Water Temperatures

Place Temperature

Stations

Nearby Weather Stations

Station Location Temp. Windchill Dew Point Humidity Wind Precip. Elev Updated Type